Portada
METAR-TAF:

METAR-TAF

Aeroports :

Moorhead Municipal Airport

Moorhead, Minnesota, Estats Units d'Amèrica

latitud: 46-50-21N, longitud: 096-39-47W, altitud: 280 m

Observació

L'informe es va fer fa 18 minuts, a les 20:35 UTC
Vent 12 kt del Sud
Temperatura -3°C
Humitat 68%
Pressió 1024 hPa
Visibilitat: 16.1 km
Cel ennuvolat a una alçada de 1800 ft

METAR: KJKJ 062035Z AUTO 17012KT 10SM BKN018 M03/M08 A3023 RMK AO2

Hora: 14:53 (20:53 UTC)


TAF: manca

Observacions i pronòstics meteorològics de més de 4000 aeroports (METAR i TAF).

Les estacions disponibles són els punts grocs i vermells al mapa.

Posi el ratolí al punt desitjat per veure el nom de l'estació.

Feu clic per veure les observacions i els pronòstics meteorològics.

Per canviar el mapa: feu clic els botons verds amb una creu de color negre per apropar; al botó verd amb un guió per allunyar la imatge; o en les fletxes verdes per a mapes adjacents.


METAR-TAF: